Time;durP1;ratioP1;P1;durP2;ratioP2;P2;SDS_P1;SDS_P2;PMS_P1;PMS_P2;Temp;Humidity;BMP_temperature;BMP_pressure;BME280_temperature;BME280_humidity;BME280_pressure;Samples;Min_cycle;Max_cycle;Signal;HPM_P1;HPM_P2
2024/02/29 00:00:43;;;;;;;;;;;;;;;;;;5093236;28;19931;-72
2024/02/29 00:03:09;;;;;;;;;;;;;;;;;;5093223;28;19909;-72
2024/02/29 00:05:35;;;;;;;;;;;;;;;;;;5096173;28;20379;-72
2024/02/29 00:08:01;;;;;;;;;;;;;;;;;;5097029;28;20378;-71
2024/02/29 00:10:28;;;;;;;;;;;;;;;;;;5097438;28;19995;-72
2024/02/29 00:12:54;;;;;;;;;;;;;;;;;;5096545;28;19915;-71
2024/02/29 00:15:20;;;;;;;;;;;;;;;;;;5096766;28;19912;-72
2024/02/29 00:17:46;;;;;;;;;;;;;;;;;;5096671;28;19959;-72
2024/02/29 00:20:12;;;;;;;;;;;;;;;;;;5095031;28;19931;-72
2024/02/29 00:22:38;;;;;;;;;;;;;;;;;;5095311;28;20007;-72
2024/02/29 00:25:04;;;;;;;;;;;;;;;;;;5096649;28;20003;-72
2024/02/29 00:27:30;;;;;;;;;;;;;;;;;;5096603;28;20007;-71
2024/02/29 00:29:56;;;;;;;;;;;;;;;;;;5095240;28;19908;-71
2024/02/29 00:32:22;;;;;;;;;;;;;;;;;;5096382;28;19908;-71
2024/02/29 00:34:49;;;;;;;;;;;;;;;;;;5095962;28;20356;-72
2024/02/29 00:37:15;;;;;;;;;;;;;;;;;;5096200;28;19916;-71
2024/02/29 00:39:41;;;;;;;;;;;;;;;;;;5096216;28;19957;-72
2024/02/29 00:42:07;;;;;;;;;;;;;;;;;;5095848;28;19908;-71
2024/02/29 00:44:33;;;;;;;;;;;;;;;;;;5094840;28;19908;-72
2024/02/29 00:46:58;;;;;;;;;;;;;;;;;;5095777;28;20234;-72
2024/02/29 00:49:24;;;;;;;;;;;;;;;;;;5096099;28;19953;-72
2024/02/29 00:51:50;;;;;;;;;;;;;;;;;;5095992;28;19912;-72
2024/02/29 00:54:16;;;;;;;;;;;;;;;;;;5095678;28;19912;-72
2024/02/29 00:56:42;;;;;;;;;;;;;;;;;;5094445;28;19927;-71
2024/02/29 00:59:08;;;;;;;;;;;;;;;;;;5095884;28;19908;-72
2024/02/29 01:01:34;;;;;;;;;;;;;;;;;;5095445;28;19915;-71
2024/02/29 01:04:00;;;;;;;;;;;;;;;;;;5095821;28;20003;-72
2024/02/29 01:06:26;;;;;;;;;;;;;;;;;;5095771;28;19908;-72
2024/02/29 01:08:52;;;;;;;;;;;;;;;;;;5095212;28;19915;-72
2024/02/29 01:11:18;;;;;;;;;;;;;;;;;;5095871;28;19915;-72
2024/02/29 01:13:44;;;;;;;;;;;;;;;;;;5095649;28;19946;-72
2024/02/29 01:16:10;;;;;;;;;;;;;;;;;;5093801;28;19908;-72
2024/02/29 01:18:36;;;;;;;;;;;;;;;;;;5095785;28;19908;-72
2024/02/29 01:21:02;;;;;;;;;;;;;;;;;;5095493;28;19908;-72
2024/02/29 01:23:28;;;;;;;;;;;;;;;;;;5095287;28;20011;-72
2024/02/29 01:25:54;;;;;;;;;;;;;;;;;;5094152;28;19912;-72
2024/02/29 01:28:19;;;;;;;;;;;;;;;;;;5095341;28;20042;-72
2024/02/29 01:30:45;;;;;;;;;;;;;;;;;;5094922;28;19908;-72
2024/02/29 01:33:11;;;;;;;;;;;;;;;;;;5095638;28;19919;-72
2024/02/29 01:35:37;;;;;;;;;;;;;;;;;;5095212;28;20376;-72
2024/02/29 01:38:03;;;;;;;;;;;;;;;;;;5094657;28;20360;-72
2024/02/29 01:40:29;;;;;;;;;;;;;;;;;;5093770;28;19908;-71
2024/02/29 01:42:55;;;;;;;;;;;;;;;;;;5095335;28;20011;-71
2024/02/29 01:45:21;;;;;;;;;;;;;;;;;;5094638;28;19908;-72
2024/02/29 01:47:47;;;;;;;;;;;;;;;;;;5094917;28;19915;-71
2024/02/29 01:50:13;;;;;;;;;;;;;;;;;;5094755;28;20041;-72
2024/02/29 01:52:40;;;;;;;;;;;;;;;;;;5094878;28;19908;-71
2024/02/29 01:55:06;;;;;;;;;;;;;;;;;;5093494;28;19908;-71
2024/02/29 01:57:32;;;;;;;;;;;;;;;;;;5094265;28;20288;-71
2024/02/29 01:59:58;;;;;;;;;;;;;;;;;;5094694;28;20330;-71
2024/02/29 02:02:24;;;;;;;;;;;;;;;;;;5094673;28;19915;-71
2024/02/29 02:04:50;;;;;;;;;;;;;;;;;;5094230;28;19991;-71
2024/02/29 02:07:16;;;;;;;;;;;;;;;;;;5094541;28;19934;-71
2024/02/29 02:09:42;;;;;;;;;;;;;;;;;;5094852;28;19908;-71
2024/02/29 02:12:10;;;;;;;;;;;;;;;;;;5092723;28;20003;-71
2024/02/29 02:14:36;;;;;;;;;;;;;;;;;;5093104;28;19908;-72
2024/02/29 02:17:02;;;;;;;;;;;;;;;;;;5093046;28;20018;-71
2024/02/29 02:19:28;;;;;;;;;;;;;;;;;;5093932;28;19999;-71
2024/02/29 02:21:54;;;;;;;;;;;;;;;;;;5094598;28;19961;-71
2024/02/29 02:24:24;;;;;;;;;;;;;;;;;;5094702;28;19908;-72
2024/02/29 02:26:50;;;;;;;;;;;;;;;;;;5093435;28;19916;-71
2024/02/29 02:29:16;;;;;;;;;;;;;;;;;;5094450;28;19908;-71
2024/02/29 02:31:42;;;;;;;;;;;;;;;;;;5094224;28;19994;-71
2024/02/29 02:34:08;;;;;;;;;;;;;;;;;;5093787;28;19923;-71
2024/02/29 02:36:34;;;;;;;;;;;;;;;;;;5092720;28;19919;-71
2024/02/29 02:39:00;;;;;;;;;;;;;;;;;;5094024;28;19916;-71
2024/02/29 02:41:26;;;;;;;;;;;;;;;;;;5093646;28;20050;-71
2024/02/29 02:43:52;;;;;;;;;;;;;;;;;;5092679;28;19951;-71
2024/02/29 02:46:19;;;;;;;;;;;;;;;;;;5093921;28;19915;-71
2024/02/29 02:48:44;;;;;;;;;;;;;;;;;;5093757;28;19908;-71
2024/02/29 02:51:11;;;;;;;;;;;;;;;;;;5093905;28;19947;-73
2024/02/29 02:53:37;;;;;;;;;;;;;;;;;;5093589;28;20279;-72
2024/02/29 02:56:03;;;;;;;;;;;;;;;;;;5092450;28;19912;-71
2024/02/29 02:58:29;;;;;;;;;;;;;;;;;;5093831;28;19916;-72
2024/02/29 03:00:55;;;;;;;;;;;;;;;;;;5093706;28;20412;-72
2024/02/29 03:03:21;;;;;;;;;;;;;;;;;;5093730;28;19912;-71
2024/02/29 03:05:47;;;;;;;;;;;;;;;;;;5093815;28;20444;-72
2024/02/29 03:08:13;;;;;;;;;;;;;;;;;;5093316;28;19908;-71
2024/02/29 03:10:39;;;;;;;;;;;;;;;;;;5093696;28;19908;-72
2024/02/29 03:13:06;;;;;;;;;;;;;;;;;;5093831;28;20368;-72
2024/02/29 03:15:32;;;;;;;;;;;;;;;;;;5093229;28;19953;-72
2024/02/29 03:17:58;;;;;;;;;;;;;;;;;;5093503;28;19920;-71
2024/02/29 03:20:23;;;;;;;;;;;;;;;;;;5092336;28;20405;-72
2024/02/29 03:22:49;;;;;;;;;;;;;;;;;;5093194;28;20322;-71
2024/02/29 03:25:16;;;;;;;;;;;;;;;;;;5093584;28;19913;-71
2024/02/29 03:27:42;;;;;;;;;;;;;;;;;;5093479;28;19908;-71
2024/02/29 03:30:08;;;;;;;;;;;;;;;;;;5093303;28;20007;-72
2024/02/29 03:32:34;;;;;;;;;;;;;;;;;;5093538;28;19958;-72
2024/02/29 03:35:01;;;;;;;;;;;;;;;;;;5093545;28;19972;-72
2024/02/29 03:37:27;;;;;;;;;;;;;;;;;;5092985;28;19923;-72
2024/02/29 03:39:54;;;;;;;;;;;;;;;;;;5095841;28;19908;-72
2024/02/29 03:42:20;;;;;;;;;;;;;;;;;;5097422;28;20407;-72
2024/02/29 03:44:46;;;;;;;;;;;;;;;;;;5095789;28;19908;-72
2024/02/29 03:47:12;;;;;;;;;;;;;;;;;;5097299;28;20017;-72
2024/02/29 03:49:38;;;;;;;;;;;;;;;;;;5096885;28;19908;-72
2024/02/29 03:52:04;;;;;;;;;;;;;;;;;;5097303;28;20006;-72
2024/02/29 03:54:30;;;;;;;;;;;;;;;;;;5097201;28;19918;-72
2024/02/29 03:56:56;;;;;;;;;;;;;;;;;;5096450;28;19920;-72
2024/02/29 03:59:22;;;;;;;;;;;;;;;;;;5097049;28;20012;-72
2024/02/29 04:01:51;;;;;;;;;;;;;;;;;;5096900;28;20419;-72
2024/02/29 04:04:17;;;;;;;;;;;;;;;;;;5096621;28;20443;-73
2024/02/29 04:06:43;;;;;;;;;;;;;;;;;;5097071;28;19908;-72
2024/02/29 04:09:09;;;;;;;;;;;;;;;;;;5097151;28;20360;-72
2024/02/29 04:11:35;;;;;;;;;;;;;;;;;;5096460;28;19908;-72
2024/02/29 04:14:01;;;;;;;;;;;;;;;;;;5096822;28;19933;-72
2024/02/29 04:16:27;;;;;;;;;;;;;;;;;;5095412;28;19955;-72
2024/02/29 04:18:53;;;;;;;;;;;;;;;;;;5096355;28;19946;-72
2024/02/29 04:21:19;;;;;;;;;;;;;;;;;;5095409;28;19908;-72
2024/02/29 04:23:45;;;;;;;;;;;;;;;;;;5096597;28;19908;-72
2024/02/29 04:26:11;;;;;;;;;;;;;;;;;;5096187;28;19965;-72
2024/02/29 04:28:37;;;;;;;;;;;;;;;;;;5096583;28;19908;-71
2024/02/29 04:31:03;;;;;;;;;;;;;;;;;;5096436;28;20280;-71
2024/02/29 04:33:29;;;;;;;;;;;;;;;;;;5095971;28;19908;-71
2024/02/29 04:35:55;;;;;;;;;;;;;;;;;;5096367;28;19908;-72
2024/02/29 04:38:20;;;;;;;;;;;;;;;;;;5096204;28;19920;-72
2024/02/29 04:40:46;;;;;;;;;;;;;;;;;;5094578;28;19927;-72
2024/02/29 04:43:13;;;;;;;;;;;;;;;;;;5094829;28;19908;-73
2024/02/29 04:45:39;;;;;;;;;;;;;;;;;;5096379;28;19995;-72
2024/02/29 04:48:05;;;;;;;;;;;;;;;;;;5095825;28;20000;-73
2024/02/29 04:50:31;;;;;;;;;;;;;;;;;;5095749;28;19930;-73
2024/02/29 04:52:57;;;;;;;;;;;;;;;;;;5095701;28;19991;-72
2024/02/29 04:55:23;;;;;;;;;;;;;;;;;;5095982;28;20276;-72
2024/02/29 04:57:49;;;;;;;;;;;;;;;;;;5095643;28;19989;-72
2024/02/29 05:00:15;;;;;;;;;;;;;;;;;;5095531;28;19916;-73
2024/02/29 05:02:41;;;;;;;;;;;;;;;;;;5095843;28;19912;-72
2024/02/29 05:05:07;;;;;;;;;;;;;;;;;;5095879;28;19991;-72
2024/02/29 05:07:33;;;;;;;;;;;;;;;;;;5094044;28;19908;-72
2024/02/29 05:09:59;;;;;;;;;;;;;;;;;;5094423;28;19908;-72
2024/02/29 05:12:26;;;;;;;;;;;;;;;;;;5095881;28;20019;-72
2024/02/29 05:14:52;;;;;;;;;;;;;;;;;;5095377;28;20423;-73
2024/02/29 05:17:18;;;;;;;;;;;;;;;;;;5095561;28;19916;-73
2024/02/29 05:19:44;;;;;;;;;;;;;;;;;;5094216;28;19961;-73
2024/02/29 05:22:10;;;;;;;;;;;;;;;;;;5095271;28;19916;-72
2024/02/29 05:24:36;;;;;;;;;;;;;;;;;;5095408;28;19908;-73
2024/02/29 05:27:02;;;;;;;;;;;;;;;;;;5094055;28;19908;-73
2024/02/29 05:29:28;;;;;;;;;;;;;;;;;;5094944;28;19908;-73
2024/02/29 05:31:54;;;;;;;;;;;;;;;;;;5095285;28;19912;-73
2024/02/29 05:34:20;;;;;;;;;;;;;;;;;;5093883;28;20007;-73
2024/02/29 05:36:47;;;;;;;;;;;;;;;;;;5094819;28;19920;-73
2024/02/29 05:39:13;;;;;;;;;;;;;;;;;;5093934;28;19915;-71
2024/02/29 05:41:39;;;;;;;;;;;;;;;;;;5093977;28;20288;-73
2024/02/29 05:44:05;;;;;;;;;;;;;;;;;;5094695;28;20003;-72
2024/02/29 05:46:31;;;;;;;;;;;;;;;;;;5095008;28;19908;-72
2024/02/29 05:48:57;;;;;;;;;;;;;;;;;;5095114;28;20394;-72
2024/02/29 05:51:25;;;;;;;;;;;;;;;;;;5094654;28;19909;-72
2024/02/29 05:53:51;;;;;;;;;;;;;;;;;;5094829;28;19912;-72
2024/02/29 05:56:17;;;;;;;;;;;;;;;;;;5094253;28;19920;-72
2024/02/29 05:58:43;;;;;;;;;;;;;;;;;;5095032;28;20383;-72
2024/02/29 06:01:09;;;;;;;;;;;;;;;;;;5094447;28;19908;-72
2024/02/29 06:03:37;;;;;;;;;;;;;;;;;;5093915;28;19908;-72
2024/02/29 06:06:03;;;;;;;;;;;;;;;;;;5094712;28;20347;-72
2024/02/29 06:08:29;;;;;;;;;;;;;;;;;;5093341;28;19943;-72
2024/02/29 06:10:55;;;;;;;;;;;;;;;;;;5092854;28;20288;-72
2024/02/29 06:13:21;;;;;;;;;;;;;;;;;;5093158;28;19938;-72
2024/02/29 06:15:47;;;;;;;;;;;;;;;;;;5094843;28;20437;-72
2024/02/29 06:18:13;;;;;;;;;;;;;;;;;;5093831;28;19970;-69
2024/02/29 06:20:39;;;;;;;;;;;;;;;;;;5094389;28;19915;-69
2024/02/29 06:23:05;;;;;;;;;;;;;;;;;;5097975;28;19916;-69
2024/02/29 06:25:31;;;;;;;;;;;;;;;;;;5091853;28;20048;-67
2024/02/29 06:27:57;;;;;;;;;;;;;;;;;;5096747;28;20372;-70
2024/02/29 06:30:32;;;;;;;;;;;;;;;;;;5097392;28;19923;-67
2024/02/29 06:33:00;;;;;;;;;;;;;;;;;;5105000;28;19923;-71
2024/02/29 06:35:26;;;;;;;;;;;;;;;;;;5098127;28;20007;-69
2024/02/29 06:37:52;;;;;;;;;;;;;;;;;;5108043;28;19927;-69
2024/02/29 06:40:18;;;;;;;;;;;;;;;;;;5096820;28;19919;-67
2024/02/29 06:42:44;;;;;;;;;;;;;;;;;;5096172;28;19916;-68
2024/02/29 06:45:10;;;;;;;;;;;;;;;;;;5100123;28;19920;-69
2024/02/29 06:47:37;;;;;;;;;;;;;;;;;;5093492;28;19915;-69
2024/02/29 06:50:03;;;;;;;;;;;;;;;;;;5103433;28;19998;-71
2024/02/29 06:52:29;;;;;;;;;;;;;;;;;;5102889;28;19911;-70
2024/02/29 06:54:55;;;;;;;;;;;;;;;;;;5108783;28;19918;-70
2024/02/29 06:57:21;;;;;;;;;;;;;;;;;;5093840;28;19923;-71
2024/02/29 06:59:47;;;;;;;;;;;;;;;;;;5100048;28;19970;-70
2024/02/29 07:02:12;;;;;;;;;;;;;;;;;;5093400;28;19920;-70
2024/02/29 07:04:38;;;;;;;;;;;;;;;;;;5105383;28;19911;-70
2024/02/29 07:07:07;;;;;;;;;;;;;;;;;;5102047;28;19954;-69
2024/02/29 07:09:33;;;;;;;;;;;;;;;;;;5095806;28;19969;-69
2024/02/29 07:12:00;;;;;;;;;;;;;;;;;;5095304;28;19916;-68
2024/02/29 07:14:31;;;;;;;;;;;;;;;;;;5107827;28;19995;-70
2024/02/29 07:16:57;;;;;;;;;;;;;;;;;;5103304;28;19923;-69
2024/02/29 07:19:26;;;;;;;;;;;;;;;;;;5103773;28;19914;-69
2024/02/29 07:21:52;;;;;;;;;;;;;;;;;;5103517;28;20003;-69
2024/02/29 07:24:19;;;;;;;;;;;;;;;;;;5094617;28;19958;-69
2024/02/29 07:26:45;;;;;;;;;;;;;;;;;;5110874;28;19908;-70
2024/02/29 07:29:11;;;;;;;;;;;;;;;;;;5102584;28;19923;-69
2024/02/29 07:31:37;;;;;;;;;;;;;;;;;;5113845;28;19916;-69
2024/02/29 07:34:03;;;;;;;;;;;;;;;;;;5113611;28;20010;-69
2024/02/29 07:36:29;;;;;;;;;;;;;;;;;;5101485;28;19916;-69
2024/02/29 07:38:55;;;;;;;;;;;;;;;;;;5099775;28;20403;-69
2024/02/29 07:41:21;;;;;;;;;;;;;;;;;;5100494;28;19909;-68
2024/02/29 07:43:47;;;;;;;;;;;;;;;;;;5114404;28;19958;-67
2024/02/29 07:46:13;;;;;;;;;;;;;;;;;;5113116;28;19931;-68
2024/02/29 07:48:39;;;;;;;;;;;;;;;;;;5101012;27;20039;-67
2024/02/29 07:51:05;;;;;;;;;;;;;;;;;;5109943;28;20307;-68
2024/02/29 07:53:31;;;;;;;;;;;;;;;;;;5106463;28;19939;-69
2024/02/29 07:55:57;;;;;;;;;;;;;;;;;;5107345;28;19915;-67
2024/02/29 07:58:23;;;;;;;;;;;;;;;;;;5104158;27;20013;-67
2024/02/29 08:00:49;;;;;;;;;;;;;;;;;;5098520;28;20003;-68
2024/02/29 08:03:15;;;;;;;;;;;;;;;;;;5099269;28;20455;-70
2024/02/29 08:05:41;;;;;;;;;;;;;;;;;;5106553;28;20329;-67
2024/02/29 08:08:07;;;;;;;;;;;;;;;;;;5107033;27;19937;-69
2024/02/29 08:10:33;;;;;;;;;;;;;;;;;;5102867;27;20003;-71
2024/02/29 08:12:59;;;;;;;;;;;;;;;;;;5079804;28;20474;-70
2024/02/29 08:15:25;;;;;;;;;;;;;;;;;;5088249;28;20364;-68
2024/02/29 08:17:53;;;;;;;;;;;;;;;;;;5083476;28;20281;-68
2024/02/29 08:20:20;;;;;;;;;;;;;;;;;;5101953;28;19922;-67
2024/02/29 08:22:46;;;;;;;;;;;;;;;;;;5085027;28;20011;-68
2024/02/29 08:25:12;;;;;;;;;;;;;;;;;;5097333;28;20042;-71
2024/02/29 08:27:38;;;;;;;;;;;;;;;;;;5087335;28;19938;-70
2024/02/29 08:30:04;;;;;;;;;;;;;;;;;;5097123;28;19994;-69
2024/02/29 08:32:30;;;;;;;;;;;;;;;;;;5101642;28;19995;-70
2024/02/29 08:34:56;;;;;;;;;;;;;;;;;;5102876;28;20335;-69
2024/02/29 08:37:22;;;;;;;;;;;;;;;;;;5103731;28;19967;-70
2024/02/29 08:39:48;;;;;;;;;;;;;;;;;;5095376;28;19963;-70
2024/02/29 08:42:14;;;;;;;;;;;;;;;;;;5104235;28;20447;-69
2024/02/29 08:44:40;;;;;;;;;;;;;;;;;;5105724;28;19920;-70
2024/02/29 08:47:07;;;;;;;;;;;;;;;;;;5094917;28;19916;-68
2024/02/29 08:49:33;;;;;;;;;;;;;;;;;;5095044;28;20018;-69
2024/02/29 08:51:59;;;;;;;;;;;;;;;;;;5101340;28;20356;-70
2024/02/29 08:54:26;;;;;;;;;;;;;;;;;;5107878;28;19920;-68
2024/02/29 08:56:52;;;;;;;;;;;;;;;;;;5101699;28;19920;-68
2024/02/29 08:59:18;;;;;;;;;;;;;;;;;;5093452;28;20377;-71
2024/02/29 09:01:44;;;;;;;;;;;;;;;;;;5098539;28;19917;-69
2024/02/29 09:04:10;;;;;;;;;;;;;;;;;;5104297;28;19950;-71
2024/02/29 09:06:36;;;;;;;;;;;;;;;;;;5094276;28;19943;-69
2024/02/29 09:09:02;;;;;;;;;;;;;;;;;;5100973;28;19911;-67
2024/02/29 09:11:29;;;;;;;;;;;;;;;;;;5089761;28;19980;-67
2024/02/29 09:13:56;;;;;;;;;;;;;;;;;;5094447;28;20375;-68
2024/02/29 09:16:22;;;;;;;;;;;;;;;;;;5107408;27;19908;-68
2024/02/29 09:18:48;;;;;;;;;;;;;;;;;;5104175;28;20428;-71
2024/02/29 09:21:15;;;;;;;;;;;;;;;;;;5089813;28;19916;-69
2024/02/29 09:23:41;;;;;;;;;;;;;;;;;;5092831;28;19919;-69
2024/02/29 09:26:07;;;;;;;;;;;;;;;;;;5092047;28;20383;-69
2024/02/29 09:28:34;;;;;;;;;;;;;;;;;;5096991;28;20872;-70
2024/02/29 09:31:00;;;;;;;;;;;;;;;;;;5099197;28;20827;-68
2024/02/29 09:33:26;;;;;;;;;;;;;;;;;;5105568;28;19915;-67
2024/02/29 09:35:57;;;;;;;;;;;;;;;;;;5103945;28;19916;-68
2024/02/29 09:38:23;;;;;;;;;;;;;;;;;;5099624;28;19931;-67
2024/02/29 09:40:49;;;;;;;;;;;;;;;;;;5103280;28;20665;-67
2024/02/29 09:43:15;;;;;;;;;;;;;;;;;;5099788;28;20013;-69
2024/02/29 09:45:41;;;;;;;;;;;;;;;;;;5082165;28;19916;-67
2024/02/29 09:48:07;;;;;;;;;;;;;;;;;;5078086;28;19920;-67
2024/02/29 09:50:33;;;;;;;;;;;;;;;;;;5103826;28;20330;-66
2024/02/29 09:53:04;;;;;;;;;;;;;;;;;;5099547;28;19914;-70
2024/02/29 09:55:30;;;;;;;;;;;;;;;;;;5096783;28;20014;-68
2024/02/29 09:57:58;;;;;;;;;;;;;;;;;;5100902;28;20011;-70
2024/02/29 10:00:24;;;;;;;;;;;;;;;;;;5100789;28;19916;-70
2024/02/29 10:02:50;;;;;;;;;;;;;;;;;;5103734;28;20268;-70
2024/02/29 10:05:15;;;;;;;;;;;;;;;;;;5100198;28;19915;-69
2024/02/29 10:07:42;;;;;;;;;;;;;;;;;;5094359;28;20487;-68
2024/02/29 10:10:09;;;;;;;;;;;;;;;;;;5098140;28;19916;-70
2024/02/29 10:12:35;;;;;;;;;;;;;;;;;;5100365;28;19946;-69
2024/02/29 10:15:01;;;;;;;;;;;;;;;;;;5099451;28;19959;-69
2024/02/29 10:17:36;;;;;;;;;;;;;;;;;;5097071;28;19928;-68
2024/02/29 10:20:03;;;;;;;;;;;;;;;;;;5100651;28;20343;-70
2024/02/29 10:22:29;;;;;;;;;;;;;;;;;;5100642;28;19916;-71
2024/02/29 10:24:56;;;;;;;;;;;;;;;;;;5104219;28;19914;-68
2024/02/29 10:27:24;;;;;;;;;;;;;;;;;;5092718;28;19916;-69
2024/02/29 10:29:50;;;;;;;;;;;;;;;;;;5105072;28;20277;-69
2024/02/29 10:34:08;;;;;;;;;;;;;;;;;;5114975;27;20391;-67
2024/02/29 10:37:26;;;;;;;;;;;;;;;;;;4980792;27;4741119;-70
2024/02/29 10:39:52;;;;;;;;;;;;;;;;;;5141804;27;19911;-67
2024/02/29 10:42:18;;;;;;;;;;;;;;;;;;5126894;27;20525;-68
2024/02/29 10:44:44;;;;;;;;;;;;;;;;;;5137052;27;19960;-71
2024/02/29 10:47:36;;;;;;;;;;;;;;;;;;5081935;27;19921;-67
2024/02/29 10:50:30;;;;;;;;;;;;;;;;;;5114070;27;19923;-67
2024/02/29 10:52:56;;;;;;;;;;;;;;;;;;5127332;27;20379;-69
2024/02/29 10:59:43;;;;;;;;;;;;;;;;;;5084178;27;19922;-65
2024/02/29 11:02:50;;;;;;;;;;;;;;;;;;5085773;27;19923;-67
2024/02/29 11:05:16;;;;;;;;;;;;;;;;;;5084331;28;19916;-66
2024/02/29 11:08:00;;;;;;;;;;;;;;;;;;5085930;27;19927;-67
2024/02/29 11:15:21;;;;;;;;;;;;;;;;;;5081783;28;19921;-66
2024/02/29 11:19:56;;;;;;;;;;;;;;;;;;5060573;28;19916;-69
2024/02/29 11:22:21;;;;;;;;;;;;;;;;;;5065386;28;19917;-67
2024/02/29 11:27:31;;;;;;;;;;;;;;;;;;5085292;27;19920;-67
2024/02/29 11:32:08;;;;;;;;;;;;;;;;;;5101541;27;19916;-67
2024/02/29 11:35:26;;;;;;;;;;;;;;;;;;5123818;27;19923;-67
2024/02/29 11:37:53;;;;;;;;;;;;;;;;;;5090310;28;20275;-70
2024/02/29 11:44:40;;;;;;;;;;;;;;;;;;5117569;27;19926;-68
2024/02/29 11:48:52;;;;;;;;;;;;;;;;;;5079937;27;2113330;-68
2024/02/29 11:51:17;;;;;;;;;;;;;;;;;;5157975;27;19922;-68
2024/02/29 11:53:43;;;;;;;;;;;;;;;;;;5131531;27;19912;-66
2024/02/29 11:57:26;;;;;;;;;;;;;;;;;;5089093;27;19916;-69
2024/02/29 11:59:53;;;;;;;;;;;;;;;;;;5085406;28;19960;-69
2024/02/29 12:02:19;;;;;;;;;;;;;;;;;;5078390;28;20403;-69
2024/02/29 12:07:04;;;;;;;;;;;;;;;;;;5115426;27;19915;-68
2024/02/29 12:09:32;;;;;;;;;;;;;;;;;;5121520;27;19916;-67
2024/02/29 12:11:58;;;;;;;;;;;;;;;;;;5120262;27;20513;-70
2024/02/29 12:14:23;;;;;;;;;;;;;;;;;;5125765;27;19916;-67
2024/02/29 12:16:49;;;;;;;;;;;;;;;;;;5117945;28;19915;-65
2024/02/29 12:20:16;;;;;;;;;;;;;;;;;;5093763;27;19926;-69
2024/02/29 12:23:33;;;;;;;;;;;;;;;;;;5113468;27;19920;-69
2024/02/29 12:25:59;;;;;;;;;;;;;;;;;;5109089;28;19923;-68
2024/02/29 12:28:25;;;;;;;;;;;;;;;;;;5115635;27;20014;-68
2024/02/29 12:32:00;;;;;;;;;;;;;;;;;;5139500;27;20299;-71
2024/02/29 12:36:02;;;;;;;;;;;;;;;;;;5087839;27;19920;-68
2024/02/29 12:38:28;;;;;;;;;;;;;;;;;;5087975;28;19912;-69
2024/02/29 12:42:01;;;;;;;;;;;;;;;;;;5109755;27;20364;-67
2024/02/29 12:44:27;;;;;;;;;;;;;;;;;;5109522;28;19959;-67
2024/02/29 12:46:55;;;;;;;;;;;;;;;;;;5126650;28;19951;-67
2024/02/29 12:50:51;;;;;;;;;;;;;;;;;;5090359;27;19924;-68
2024/02/29 12:54:46;;;;;;;;;;;;;;;;;;5090593;28;20368;-68
2024/02/29 12:59:22;;;;;;;;;;;;;;;;;;5110316;27;19923;-68
2024/02/29 13:01:48;;;;;;;;;;;;;;;;;;5109923;28;19990;-68
2024/02/29 13:04:14;;;;;;;;;;;;;;;;;;5123434;28;19911;-68
2024/02/29 13:06:54;;;;;;;;;;;;;;;;;;5089453;27;19916;-68
2024/02/29 13:12:58;;;;;;;;;;;;;;;;;;5109183;27;19912;-68
2024/02/29 13:15:24;;;;;;;;;;;;;;;;;;5116293;27;19926;-68
2024/02/29 13:17:50;;;;;;;;;;;;;;;;;;5116529;28;19911;-68
2024/02/29 13:21:23;;;;;;;;;;;;;;;;;;5111718;27;20410;-69
2024/02/29 13:23:49;;;;;;;;;;;;;;;;;;5111692;28;20322;-68
2024/02/29 13:29:45;;;;;;;;;;;;;;;;;;5090375;27;19920;-68
2024/02/29 13:33:30;;;;;;;;;;;;;;;;;;5151452;27;20038;-68
2024/02/29 13:42:06;;;;;;;;;;;;;;;;;;5170954;27;20404;-70
2024/02/29 13:44:32;;;;;;;;;;;;;;;;;;5158913;27;19911;-69
2024/02/29 13:46:58;;;;;;;;;;;;;;;;;;5148325;27;20023;-70
2024/02/29 13:49:30;;;;;;;;;;;;;;;;;;5148856;27;20365;-69
2024/02/29 13:51:59;;;;;;;;;;;;;;;;;;5132594;27;19907;-71
2024/02/29 13:54:25;;;;;;;;;;;;;;;;;;5147409;27;19907;-71
2024/02/29 13:56:51;;;;;;;;;;;;;;;;;;5149275;27;19918;-71
2024/02/29 13:59:35;;;;;;;;;;;;;;;;;;5067487;28;19916;-71
2024/02/29 14:02:01;;;;;;;;;;;;;;;;;;5067852;28;19920;-72
2024/02/29 14:05:07;;;;;;;;;;;;;;;;;;5110857;27;19916;-73
2024/02/29 14:07:33;;;;;;;;;;;;;;;;;;5110023;28;20006;-72
2024/02/29 14:10:24;;;;;;;;;;;;;;;;;;5089424;27;19916;-70
2024/02/29 14:14:53;;;;;;;;;;;;;;;;;;5084643;28;19927;-72
2024/02/29 14:17:43;;;;;;;;;;;;;;;;;;5088060;27;19923;-70
2024/02/29 14:20:08;;;;;;;;;;;;;;;;;;5084648;28;20430;-71
2024/02/29 14:22:35;;;;;;;;;;;;;;;;;;5086214;28;19909;-70
2024/02/29 14:25:01;;;;;;;;;;;;;;;;;;5085082;28;19908;-72
2024/02/29 14:27:27;;;;;;;;;;;;;;;;;;5084415;28;20372;-71
2024/02/29 14:29:53;;;;;;;;;;;;;;;;;;5086568;28;19920;-71
2024/02/29 14:32:19;;;;;;;;;;;;;;;;;;5087825;28;20394;-72
2024/02/29 14:36:23;;;;;;;;;;;;;;;;;;5090592;27;19917;-71
2024/02/29 14:40:44;;;;;;;;;;;;;;;;;;5091378;27;19916;-72
2024/02/29 14:45:06;;;;;;;;;;;;;;;;;;5090851;27;20377;-70
2024/02/29 14:47:32;;;;;;;;;;;;;;;;;;5090793;28;19993;-72
2024/02/29 14:55:48;;;;;;;;;;;;;;;;;;5091610;27;19919;-72
2024/02/29 14:58:14;;;;;;;;;;;;;;;;;;5091105;28;20295;-71
2024/02/29 15:00:40;;;;;;;;;;;;;;;;;;5089830;28;19995;-71
2024/02/29 15:03:06;;;;;;;;;;;;;;;;;;5090427;28;19995;-72
2024/02/29 15:05:33;;;;;;;;;;;;;;;;;;5090526;28;19948;-71
2024/02/29 15:08:00;;;;;;;;;;;;;;;;;;5088417;28;19908;-72
2024/02/29 15:12:59;;;;;;;;;;;;;;;;;;5111193;27;20291;-72
2024/02/29 15:15:26;;;;;;;;;;;;;;;;;;5111698;28;20372;-72
2024/02/29 15:17:52;;;;;;;;;;;;;;;;;;5111271;28;20390;-72
2024/02/29 15:20:18;;;;;;;;;;;;;;;;;;5111111;28;19912;-71
2024/02/29 15:22:59;;;;;;;;;;;;;;;;;;5089804;27;19923;-72
2024/02/29 15:26:51;;;;;;;;;;;;;;;;;;5091126;27;19922;-71
2024/02/29 15:29:17;;;;;;;;;;;;;;;;;;5089973;28;19955;-70
2024/02/29 15:31:44;;;;;;;;;;;;;;;;;;5090694;28;19956;-71
2024/02/29 15:34:10;;;;;;;;;;;;;;;;;;5090748;28;19912;-71
2024/02/29 15:36:36;;;;;;;;;;;;;;;;;;5090594;28;19912;-70
2024/02/29 15:39:02;;;;;;;;;;;;;;;;;;5091113;28;20372;-71
2024/02/29 15:43:24;;;;;;;;;;;;;;;;;;5091341;27;19922;-72
2024/02/29 15:45:50;;;;;;;;;;;;;;;;;;5091207;28;19955;-73
2024/02/29 15:48:16;;;;;;;;;;;;;;;;;;5090765;28;19951;-73
2024/02/29 15:50:42;;;;;;;;;;;;;;;;;;5090073;28;19908;-72
2024/02/29 15:53:08;;;;;;;;;;;;;;;;;;5091186;28;19915;-72
2024/02/29 15:55:34;;;;;;;;;;;;;;;;;;5090695;28;19913;-72
2024/02/29 15:58:03;;;;;;;;;;;;;;;;;;5090888;28;19908;-72
2024/02/29 16:00:29;;;;;;;;;;;;;;;;;;5090879;28;19908;-72
2024/02/29 16:02:55;;;;;;;;;;;;;;;;;;5090486;28;19965;-72
2024/02/29 16:05:21;;;;;;;;;;;;;;;;;;5089616;28;19983;-72
2024/02/29 16:07:47;;;;;;;;;;;;;;;;;;5090716;28;20356;-73
2024/02/29 16:10:13;;;;;;;;;;;;;;;;;;5090280;28;20292;-73
2024/02/29 16:12:39;;;;;;;;;;;;;;;;;;5090725;28;19977;-71
2024/02/29 16:15:05;;;;;;;;;;;;;;;;;;5089303;28;19908;-72
2024/02/29 16:17:31;;;;;;;;;;;;;;;;;;5090302;28;20364;-73
2024/02/29 16:19:58;;;;;;;;;;;;;;;;;;5090536;28;19948;-73
2024/02/29 16:22:24;;;;;;;;;;;;;;;;;;5090116;28;19921;-73
2024/02/29 16:24:50;;;;;;;;;;;;;;;;;;5090277;28;19908;-73
2024/02/29 16:27:16;;;;;;;;;;;;;;;;;;5090476;28;19912;-72
2024/02/29 16:29:42;;;;;;;;;;;;;;;;;;5089940;28;19908;-72
2024/02/29 16:32:08;;;;;;;;;;;;;;;;;;5090293;28;19970;-73
2024/02/29 16:34:35;;;;;;;;;;;;;;;;;;5089046;28;19916;-73
2024/02/29 16:37:01;;;;;;;;;;;;;;;;;;5089878;28;20444;-73
2024/02/29 16:39:27;;;;;;;;;;;;;;;;;;5090193;28;19947;-73
2024/02/29 16:41:53;;;;;;;;;;;;;;;;;;5097802;28;19971;-73
2024/02/29 16:44:20;;;;;;;;;;;;;;;;;;5110138;28;19947;-72
2024/02/29 16:46:46;;;;;;;;;;;;;;;;;;5110515;28;19908;-72
2024/02/29 16:49:13;;;;;;;;;;;;;;;;;;5110476;28;19986;-72
2024/02/29 16:51:39;;;;;;;;;;;;;;;;;;5110100;28;19912;-72
2024/02/29 16:54:05;;;;;;;;;;;;;;;;;;5100379;28;19977;-72
2024/02/29 16:56:31;;;;;;;;;;;;;;;;;;5096602;28;19947;-73
2024/02/29 16:58:57;;;;;;;;;;;;;;;;;;5096168;28;19987;-72
2024/02/29 17:01:23;;;;;;;;;;;;;;;;;;5096420;28;19954;-72
2024/02/29 17:03:49;;;;;;;;;;;;;;;;;;5096294;28;19916;-72
2024/02/29 17:06:15;;;;;;;;;;;;;;;;;;5096012;28;19915;-72
2024/02/29 17:08:41;;;;;;;;;;;;;;;;;;5096275;28;19908;-72
2024/02/29 17:11:07;;;;;;;;;;;;;;;;;;5096368;28;19908;-72
2024/02/29 17:13:33;;;;;;;;;;;;;;;;;;5095977;28;19908;-72
2024/02/29 17:15:59;;;;;;;;;;;;;;;;;;5078155;28;19908;-72
2024/02/29 17:18:27;;;;;;;;;;;;;;;;;;5096320;28;19915;-73
2024/02/29 17:20:53;;;;;;;;;;;;;;;;;;5096128;28;20036;-71
2024/02/29 17:23:19;;;;;;;;;;;;;;;;;;5096200;28;19923;-72
2024/02/29 17:25:45;;;;;;;;;;;;;;;;;;5095815;28;19909;-71
2024/02/29 17:28:11;;;;;;;;;;;;;;;;;;5096047;28;19937;-71
2024/02/29 17:30:37;;;;;;;;;;;;;;;;;;5096140;28;19908;-71
2024/02/29 17:33:03;;;;;;;;;;;;;;;;;;5077375;28;19915;-72
2024/02/29 17:35:31;;;;;;;;;;;;;;;;;;5077830;28;20284;-73
2024/02/29 17:37:58;;;;;;;;;;;;;;;;;;5096069;28;19950;-72
2024/02/29 17:40:24;;;;;;;;;;;;;;;;;;5095432;28;19912;-72
2024/02/29 17:42:50;;;;;;;;;;;;;;;;;;5077496;28;19920;-72
2024/02/29 17:45:16;;;;;;;;;;;;;;;;;;5095901;28;20382;-72
2024/02/29 17:47:45;;;;;;;;;;;;;;;;;;5095372;28;20280;-71
2024/02/29 17:50:15;;;;;;;;;;;;;;;;;;5096050;28;19908;-72
2024/02/29 17:52:41;;;;;;;;;;;;;;;;;;5095969;28;20272;-72
2024/02/29 17:55:07;;;;;;;;;;;;;;;;;;5095176;28;19915;-71
2024/02/29 17:57:33;;;;;;;;;;;;;;;;;;5077447;28;19916;-72